Time;durP1;ratioP1;P1;durP2;ratioP2;P2;SDS_P1;SDS_P2;PMS_P1;PMS_P2;Temp;Humidity;BMP_temperature;BMP_pressure;BME280_temperature;BME280_humidity;BME280_pressure;Samples;Min_cycle;Max_cycle;Signal;HPM_P1;HPM_P2
2023/01/17 00:01:38;;;;;;;3.03;1.50;;;;;;;;;;5084071;28;20495;-45
2023/01/17 00:09:51;;;;;;;2.67;1.33;;;;;;;;;;5083521;28;20047;-46
2023/01/17 00:12:19;;;;;;;3.72;1.77;;;;;;;;;;5080040;28;20511;-45
2023/01/17 00:14:45;;;;;;;2.97;2.05;;;;;;;;;;5085380;28;20024;-45
2023/01/17 00:17:11;;;;;;;3.67;1.75;;;;;;;;;;5085140;28;20395;-46
2023/01/17 06:13:22;;;;;;;1.25;0.70;;;;;;;;;;5068177;28;20047;-44
2023/01/17 06:15:48;;;;;;;1.60;0.80;;;;;;;;;;5087478;28;20032;-44
2023/01/17 06:18:15;;;;;;;1.95;1.17;;;;;;;;;;5088548;28;20046;-47
2023/01/17 06:20:42;;;;;;;2.17;1.08;;;;;;;;;;5088232;28;20024;-44
2023/01/17 06:23:12;;;;;;;2.08;1.05;;;;;;;;;;5088652;28;20077;-45
2023/01/17 06:25:38;;;;;;;2.42;1.10;;;;;;;;;;5088061;28;20028;-44
2023/01/17 06:28:04;;;;;;;0.80;0.70;;;;;;;;;;5087324;28;20081;-46
2023/01/17 06:30:31;;;;;;;1.02;0.80;;;;;;;;;;5088293;28;20024;-45
2023/01/17 06:32:57;;;;;;;1.15;1.00;;;;;;;;;;5088262;28;20027;-45
2023/01/17 06:35:24;;;;;;;1.23;0.90;;;;;;;;;;5088396;28;20020;-44
2023/01/17 06:37:54;;;;;;;2.00;0.98;;;;;;;;;;5088173;28;20059;-44
2023/01/17 06:40:20;;;;;;;1.63;1.02;;;;;;;;;;5088241;28;20045;-44
2023/01/17 06:42:46;;;;;;;1.90;1.02;;;;;;;;;;5086848;28;20110;-45
2023/01/17 06:45:12;;;;;;;1.23;1.05;;;;;;;;;;5087605;28;20059;-45
2023/01/17 06:47:39;;;;;;;2.30;1.42;;;;;;;;;;5088223;28;20024;-46
2023/01/17 06:50:06;;;;;;;1.50;1.05;;;;;;;;;;5087115;28;20031;-45
2023/01/17 06:52:32;;;;;;;1.33;1.05;;;;;;;;;;5087855;28;20067;-45
2023/01/17 06:54:58;;;;;;;1.92;1.10;;;;;;;;;;5087826;28;20061;-48
2023/01/17 06:57:25;;;;;;;2.08;1.30;;;;;;;;;;5088233;28;20502;-45
2023/01/17 06:59:51;;;;;;;1.60;1.17;;;;;;;;;;5087635;28;20085;-47
2023/01/17 07:02:17;;;;;;;1.42;1.00;;;;;;;;;;5086786;28;20032;-45
2023/01/17 07:04:43;;;;;;;1.60;0.90;;;;;;;;;;5082123;28;20404;-47
2023/01/17 07:07:09;;;;;;;1.17;1.08;;;;;;;;;;5068874;28;20024;-45
2023/01/17 07:09:35;;;;;;;1.65;1.20;;;;;;;;;;5066433;28;20550;-45
2023/01/17 07:12:01;;;;;;;2.38;1.40;;;;;;;;;;5087960;28;20131;-45
2023/01/17 07:14:28;;;;;;;2.47;1.40;;;;;;;;;;5088042;28;20427;-46
2023/01/17 07:16:55;;;;;;;1.33;1.05;;;;;;;;;;5088735;28;20032;-45
2023/01/17 07:19:21;;;;;;;2.75;1.75;;;;;;;;;;5089066;28;20070;-47
2023/01/17 07:21:50;;;;;;;1.83;1.27;;;;;;;;;;5088434;28;20491;-45
2023/01/17 07:24:16;;;;;;;2.50;1.35;;;;;;;;;;5088391;28;20030;-45
2023/01/17 07:26:42;;;;;;;2.00;1.40;;;;;;;;;;5088391;28;20523;-45
2023/01/17 07:29:08;;;;;;;2.90;1.40;;;;;;;;;;5085508;28;20068;-46
2023/01/17 07:31:36;;;;;;;2.58;1.60;;;;;;;;;;5084673;28;20063;-46
2023/01/17 07:34:03;;;;;;;2.13;1.38;;;;;;;;;;5088226;28;20017;-44
2023/01/17 07:36:29;;;;;;;2.08;1.45;;;;;;;;;;5087919;28;20031;-47
2023/01/17 07:38:55;;;;;;;2.40;1.60;;;;;;;;;;5087860;28;20486;-44
2023/01/17 07:41:22;;;;;;;2.13;1.50;;;;;;;;;;5088635;28;20028;-45
2023/01/17 07:43:48;;;;;;;2.00;1.55;;;;;;;;;;5088448;28;20059;-46
2023/01/17 07:46:14;;;;;;;1.92;1.30;;;;;;;;;;5088599;28;20035;-44
2023/01/17 07:48:40;;;;;;;2.42;1.60;;;;;;;;;;5088544;28;20046;-44
2023/01/17 07:51:07;;;;;;;2.92;1.50;;;;;;;;;;5086211;28;20792;-45
2023/01/17 07:53:34;;;;;;;2.90;1.60;;;;;;;;;;5088528;28;20027;-47
2023/01/17 07:56:01;;;;;;;2.63;1.70;;;;;;;;;;5088461;28;20032;-45
2023/01/17 07:58:27;;;;;;;2.72;1.60;;;;;;;;;;5088047;28;20039;-45
2023/01/17 08:00:54;;;;;;;1.75;1.40;;;;;;;;;;5088519;28;20046;-45
2023/01/17 08:03:20;;;;;;;2.85;1.73;;;;;;;;;;5087999;28;20020;-45
2023/01/17 08:05:56;;;;;;;3.05;1.58;;;;;;;;;;5088398;28;20036;-45
2023/01/17 08:08:22;;;;;;;2.17;1.38;;;;;;;;;;5088278;28;20464;-45
2023/01/17 08:10:50;;;;;;;2.53;1.30;;;;;;;;;;5083812;28;20042;-49
2023/01/17 08:13:16;;;;;;;1.88;0.93;;;;;;;;;;5085484;28;20012;-45
2023/01/17 08:15:42;;;;;;;1.00;0.70;;;;;;;;;;5080322;28;20040;-45
2023/01/17 08:18:08;;;;;;;0.80;0.70;;;;;;;;;;5075561;28;20081;-44
2023/01/17 08:20:34;;;;;;;0.98;0.80;;;;;;;;;;5086702;28;20025;-45
2023/01/17 08:23:00;;;;;;;0.55;0.55;;;;;;;;;;5087190;28;20379;-45
2023/01/17 08:25:27;;;;;;;0.75;0.60;;;;;;;;;;5069234;28;20090;-44
2023/01/17 08:27:56;;;;;;;0.50;0.50;;;;;;;;;;5084113;28;20053;-46
2023/01/17 08:30:22;;;;;;;0.85;0.57;;;;;;;;;;5085725;28;20506;-45
2023/01/17 08:32:48;;;;;;;1.60;0.70;;;;;;;;;;5079253;28;20104;-45
2023/01/17 08:35:15;;;;;;;0.98;0.80;;;;;;;;;;5085633;28;20051;-47
2023/01/17 08:37:41;;;;;;;0.60;0.60;;;;;;;;;;5079421;28;20390;-45
2023/01/17 08:40:07;;;;;;;0.60;0.52;;;;;;;;;;5086098;28;20065;-45
2023/01/17 08:42:38;;;;;;;1.00;0.70;;;;;;;;;;5086799;28;20028;-44
2023/01/17 08:45:04;;;;;;;0.90;0.60;;;;;;;;;;5086587;28;20028;-44
2023/01/17 08:47:31;;;;;;;1.00;0.65;;;;;;;;;;5084383;28;20039;-46
2023/01/17 08:49:58;;;;;;;0.63;0.60;;;;;;;;;;5091628;28;20043;-45
2023/01/17 08:52:24;;;;;;;0.88;0.65;;;;;;;;;;5105026;28;20027;-43
2023/01/17 08:54:52;;;;;;;0.63;0.57;;;;;;;;;;5084951;28;20414;-44
2023/01/17 08:57:18;;;;;;;3.10;0.60;;;;;;;;;;5064802;28;20116;-45
2023/01/17 08:59:45;;;;;;;0.50;0.50;;;;;;;;;;5071979;28;20039;-45
2023/01/17 09:04:47;;;;;;;0.40;0.40;;;;;;;;;;5852030;22;20098;-49
2023/01/17 09:07:14;;;;;;;0.70;0.55;;;;;;;;;;5052870;28;20083;-48
2023/01/17 09:09:40;;;;;;;2.85;0.50;;;;;;;;;;5049536;28;20025;-45
2023/01/17 09:12:06;;;;;;;1.33;0.60;;;;;;;;;;5049085;28;20435;-48
2023/01/17 09:14:33;;;;;;;1.00;0.60;;;;;;;;;;5050073;28;20025;-49
2023/01/17 09:16:59;;;;;;;0.77;0.60;;;;;;;;;;5049310;28;20376;-50
2023/01/17 09:19:25;;;;;;;0.93;0.70;;;;;;;;;;5048914;28;20028;-52
2023/01/17 09:21:51;;;;;;;0.77;0.75;;;;;;;;;;5048808;28;20017;-51
2023/01/17 09:24:17;;;;;;;1.00;0.63;;;;;;;;;;5048916;28;20536;-50
2023/01/17 09:26:43;;;;;;;1.77;0.60;;;;;;;;;;5048397;28;20557;-50
2023/01/17 09:29:10;;;;;;;0.77;0.50;;;;;;;;;;5050729;28;20056;-49
2023/01/17 09:31:36;;;;;;;0.50;0.50;;;;;;;;;;5052430;28;20029;-46
2023/01/17 09:34:02;;;;;;;0.75;0.57;;;;;;;;;;5069353;28;20024;-49
2023/01/17 09:36:32;;;;;;;0.80;0.80;;;;;;;;;;5050821;28;20083;-51
2023/01/17 09:38:58;;;;;;;2.35;1.10;;;;;;;;;;5047476;28;20029;-50
2023/01/17 09:41:26;;;;;;;2.58;1.00;;;;;;;;;;5047157;28;20029;-50
2023/01/17 09:43:55;;;;;;;1.00;0.80;;;;;;;;;;5047159;28;20345;-50
2023/01/17 09:46:23;;;;;;;1.80;1.08;;;;;;;;;;5047223;28;20392;-51
2023/01/17 09:48:51;;;;;;;1.55;0.80;;;;;;;;;;5047078;28;20400;-48
2023/01/17 09:51:23;;;;;;;1.90;0.77;;;;;;;;;;5047028;28;20403;-48
2023/01/17 09:53:50;;;;;;;0.80;0.80;;;;;;;;;;5046886;28;20079;-49
2023/01/17 09:56:22;;;;;;;1.02;0.85;;;;;;;;;;5046741;28;20438;-51
2023/01/17 09:59:07;;;;;;;1.40;0.90;;;;;;;;;;5061517;28;20110;-50
2023/01/17 10:01:33;;;;;;;1.02;0.90;;;;;;;;;;5051178;28;20495;-51
2023/01/17 10:04:17;;;;;;;2.42;1.15;;;;;;;;;;5051157;28;20520;-50
2023/01/17 10:06:43;;;;;;;;;;;;;;;;;;5046946;28;20021;-48
2023/01/17 10:09:15;;;;;;;1.15;0.80;;;;;;;;;;5050218;28;19931;-50
2023/01/17 10:11:54;;;;;;;1.33;0.90;;;;;;;;;;5053204;28;20033;-49
2023/01/17 10:14:20;;;;;;;2.10;0.85;;;;;;;;;;5047667;28;20044;-50
2023/01/17 10:17:05;;;;;;;1.58;1.15;;;;;;;;;;5048126;28;20652;-48
2023/01/17 10:19:48;;;;;;;0.93;0.70;;;;;;;;;;5047866;28;20474;-49
2023/01/17 10:22:33;;;;;;;2.78;0.80;;;;;;;;;;5048412;28;20060;-50
2023/01/17 10:25:02;;;;;;;0.80;0.80;;;;;;;;;;5033404;28;20028;-52
2023/01/17 10:27:32;;;;;;;1.40;0.90;;;;;;;;;;5048952;28;20107;-50
2023/01/17 10:30:10;;;;;;;0.70;0.60;;;;;;;;;;5047560;28;20095;-51
2023/01/17 10:32:41;;;;;;;1.58;1.00;;;;;;;;;;5048552;28;20495;-50
2023/01/17 10:35:16;;;;;;;1.63;1.00;;;;;;;;;;5046623;28;20072;-49
2023/01/17 10:37:43;;;;;;;1.10;1.00;;;;;;;;;;5051539;28;20024;-51
2023/01/17 10:40:13;;;;;;;2.58;1.05;;;;;;;;;;5046141;28;20430;-49
2023/01/17 10:42:59;;;;;;;0.80;0.80;;;;;;;;;;5057163;28;20040;-47
2023/01/17 10:45:27;;;;;;;1.17;0.90;;;;;;;;;;5026858;28;20091;-50
2023/01/17 10:48:08;;;;;;;0.98;0.80;;;;;;;;;;5050574;28;20591;-50
2023/01/17 10:50:42;;;;;;;1.75;1.00;;;;;;;;;;5050825;28;20076;-53
2023/01/17 10:53:10;;;;;;;1.38;1.00;;;;;;;;;;5041460;28;20799;-50
2023/01/17 10:55:37;;;;;;;1.23;0.90;;;;;;;;;;5047317;28;20029;-50
2023/01/17 10:58:05;;;;;;;1.85;1.00;;;;;;;;;;5047436;28;20033;-49
2023/01/17 11:00:32;;;;;;;1.90;1.00;;;;;;;;;;5047374;28;20021;-51
2023/01/17 11:02:59;;;;;;;0.90;0.90;;;;;;;;;;5046673;28;20024;-52
2023/01/17 11:05:25;;;;;;;1.50;0.82;;;;;;;;;;5046979;28;20055;-49
2023/01/17 11:08:00;;;;;;;1.30;1.00;;;;;;;;;;5046669;28;20072;-50
2023/01/17 11:10:53;;;;;;;1.48;1.08;;;;;;;;;;5046925;28;20557;-48
2023/01/17 11:13:36;;;;;;;1.10;1.00;;;;;;;;;;5043356;28;20045;-50
2023/01/17 11:16:06;;;;;;;1.02;0.80;;;;;;;;;;5046598;28;20044;-51
2023/01/17 11:18:34;;;;;;;1.50;1.13;;;;;;;;;;5057602;28;20053;-48
2023/01/17 11:21:10;;;;;;;1.90;1.30;;;;;;;;;;5047189;28;20378;-50
2023/01/17 11:23:37;;;;;;;2.50;1.35;;;;;;;;;;5035703;28;20044;-49
2023/01/17 11:26:06;;;;;;;1.80;1.20;;;;;;;;;;5044849;28;20036;-51
2023/01/17 11:28:34;;;;;;;2.17;1.25;;;;;;;;;;5047314;28;20036;-52
2023/01/17 11:31:07;;;;;;;2.33;1.02;;;;;;;;;;5046985;28;20029;-52
2023/01/17 11:33:33;;;;;;;0.77;0.73;;;;;;;;;;5050630;28;20079;-48
2023/01/17 11:35:59;;;;;;;2.97;1.10;;;;;;;;;;5048750;28;20476;-48
2023/01/17 11:38:25;;;;;;;1.40;0.90;;;;;;;;;;5046356;28;20021;-51
2023/01/17 11:41:17;;;;;;;1.85;1.15;;;;;;;;;;5049924;28;20080;-53
2023/01/17 11:43:49;;;;;;;1.17;1.00;;;;;;;;;;5046618;28;20065;-51
2023/01/17 11:46:19;;;;;;;1.25;1.00;;;;;;;;;;5047604;28;20052;-50
2023/01/17 11:48:55;;;;;;;1.13;1.00;;;;;;;;;;5049643;28;20377;-52
2023/01/17 11:51:27;;;;;;;0.88;0.88;;;;;;;;;;5046865;28;20027;-50
2023/01/17 11:53:54;;;;;;;1.13;0.90;;;;;;;;;;5050607;28;20032;-49
2023/01/17 11:56:27;;;;;;;1.05;0.88;;;;;;;;;;5047868;28;20025;-52
2023/01/17 11:59:06;;;;;;;1.00;0.80;;;;;;;;;;5054887;28;20036;-52
2023/01/17 12:01:32;;;;;;;1.20;0.93;;;;;;;;;;5058907;28;20025;-48
2023/01/17 12:04:10;;;;;;;0.70;0.70;;;;;;;;;;5066656;28;20485;-51
2023/01/17 12:06:54;;;;;;;2.03;0.90;;;;;;;;;;5046581;28;20025;-52
2023/01/17 12:09:44;;;;;;;1.30;0.93;;;;;;;;;;5045542;28;20052;-52
2023/01/17 12:15:17;;;;;;;1.55;1.00;;;;;;;;;;5025141;28;20073;-51
2023/01/17 12:17:46;;;;;;;1.63;1.00;;;;;;;;;;5062843;28;20021;-49
2023/01/17 12:20:19;;;;;;;1.48;1.20;;;;;;;;;;5061021;28;20037;-49
2023/01/17 12:23:12;;;;;;;1.20;0.90;;;;;;;;;;5052131;28;20115;-48
2023/01/17 12:25:44;;;;;;;1.98;1.10;;;;;;;;;;5025382;28;20041;-52
2023/01/17 12:28:25;;;;;;;0.65;0.60;;;;;;;;;;5064089;28;20099;-48
2023/01/17 12:31:08;;;;;;;2.47;0.70;;;;;;;;;;5044145;28;20108;-52
2023/01/17 12:33:44;;;;;;;0.80;0.80;;;;;;;;;;5040772;28;20032;-50
2023/01/17 12:36:16;;;;;;;2.10;0.70;;;;;;;;;;5045900;28;20052;-50
2023/01/17 12:38:44;;;;;;;0.75;0.60;;;;;;;;;;5048640;28;20040;-48
2023/01/17 12:41:16;;;;;;;0.60;0.60;;;;;;;;;;5048250;28;20474;-49
2023/01/17 12:43:43;;;;;;;0.57;0.57;;;;;;;;;;5048358;28;20040;-48
2023/01/17 12:46:22;;;;;;;1.40;0.90;;;;;;;;;;5048836;28;20029;-51
2023/01/17 12:48:51;;;;;;;0.90;0.80;;;;;;;;;;5047694;28;20029;-52
2023/01/17 12:51:26;;;;;;;0.77;0.60;;;;;;;;;;5048277;28;20021;-53
2023/01/17 12:54:11;;;;;;;0.95;0.73;;;;;;;;;;5048912;28;20021;-50
2023/01/17 12:56:37;;;;;;;0.63;0.63;;;;;;;;;;5065594;28;21161;-49
2023/01/17 12:59:17;;;;;;;1.17;0.57;;;;;;;;;;5068102;28;20516;-51
2023/01/17 13:01:56;;;;;;;1.15;0.70;;;;;;;;;;5060654;28;20081;-49
2023/01/17 13:04:34;;;;;;;1.02;0.63;;;;;;;;;;5067957;28;20040;-50
2023/01/17 13:07:00;;;;;;;1.38;1.20;;;;;;;;;;5062766;28;20506;-51
2023/01/17 13:09:55;;;;;;;1.30;1.05;;;;;;;;;;5049185;28;20156;-48
2023/01/17 13:12:22;;;;;;;1.38;1.00;;;;;;;;;;5032274;28;20207;-49
2023/01/17 13:14:48;;;;;;;1.05;0.88;;;;;;;;;;5046763;28;20040;-48
2023/01/17 13:17:33;;;;;;;1.17;1.08;;;;;;;;;;5051770;28;20029;-47
2023/01/17 13:20:18;;;;;;;1.40;1.13;;;;;;;;;;5050266;28;20553;-49
2023/01/17 13:22:45;;;;;;;1.23;1.10;;;;;;;;;;5048427;28;20025;-49
2023/01/17 13:25:30;;;;;;;1.15;1.00;;;;;;;;;;5047620;28;20036;-51
2023/01/17 13:28:09;;;;;;;1.52;1.20;;;;;;;;;;5047671;28;20021;-52
2023/01/17 13:30:58;;;;;;;2.47;1.50;;;;;;;;;;5028705;28;20053;-53
2023/01/17 13:33:27;;;;;;;1.17;1.08;;;;;;;;;;5046992;28;20025;-49
2023/01/17 13:36:15;;;;;;;1.27;0.90;;;;;;;;;;5042528;28;20079;-50
2023/01/17 13:38:59;;;;;;;0.88;0.77;;;;;;;;;;5049441;28;20025;-49
2023/01/17 13:41:44;;;;;;;1.00;0.90;;;;;;;;;;5049932;28;20029;-51
2023/01/17 13:44:20;;;;;;;0.63;0.60;;;;;;;;;;5049771;28;20040;-49
2023/01/17 13:46:52;;;;;;;0.70;0.60;;;;;;;;;;5047818;28;20029;-51
2023/01/17 13:49:32;;;;;;;0.80;0.65;;;;;;;;;;5050625;28;20021;-47
2023/01/17 13:52:08;;;;;;;1.38;0.88;;;;;;;;;;5052054;28;20112;-51
2023/01/17 13:54:42;;;;;;;2.25;1.38;;;;;;;;;;5047493;28;20029;-52
2023/01/17 13:57:27;;;;;;;2.13;1.38;;;;;;;;;;5048190;28;20017;-51
2023/01/17 13:59:53;;;;;;;2.15;1.55;;;;;;;;;;5047902;28;20511;-51
2023/01/17 14:02:31;;;;;;;1.35;1.10;;;;;;;;;;5047355;28;20033;-51
2023/01/17 14:05:10;;;;;;;1.45;0.90;;;;;;;;;;5052114;28;20064;-51
2023/01/17 14:07:56;;;;;;;1.00;0.90;;;;;;;;;;5069218;28;20044;-48
2023/01/17 14:10:25;;;;;;;1.60;1.10;;;;;;;;;;5061261;28;20048;-52
2023/01/17 14:12:51;;;;;;;1.42;0.90;;;;;;;;;;5049712;28;20049;-51
2023/01/17 14:15:22;;;;;;;2.95;1.40;;;;;;;;;;5049225;28;20036;-51
2023/01/17 14:17:50;;;;;;;1.83;1.50;;;;;;;;;;5047947;28;20620;-50
2023/01/17 14:20:17;;;;;;;3.17;1.88;;;;;;;;;;5048950;28;20103;-50
2023/01/17 14:22:48;;;;;;;2.42;1.60;;;;;;;;;;5048765;28;20482;-48
2023/01/17 14:25:16;;;;;;;1.42;1.20;;;;;;;;;;5048361;28;20376;-48
2023/01/17 14:27:42;;;;;;;2.70;1.42;;;;;;;;;;5048418;28;20100;-51
2023/01/17 14:30:17;;;;;;;1.45;1.13;;;;;;;;;;5059417;28;20020;-49
2023/01/17 14:33:03;;;;;;;4.20;2.67;;;;;;;;;;5053252;28;20798;-50
2023/01/17 14:35:32;;;;;;;6.90;2.97;;;;;;;;;;5048204;28;20104;-48
2023/01/17 14:38:01;;;;;;;5.15;2.90;;;;;;;;;;5047626;28;20185;-49
2023/01/17 14:40:29;;;;;;;3.33;2.22;;;;;;;;;;5051231;28;20029;-50
2023/01/17 14:43:03;;;;;;;3.58;1.85;;;;;;;;;;5047630;28;20033;-49
2023/01/17 14:45:31;;;;;;;3.35;1.65;;;;;;;;;;5048268;28;20029;-51
2023/01/17 14:47:58;;;;;;;1.70;1.40;;;;;;;;;;5062503;28;20593;-48
2023/01/17 14:50:30;;;;;;;3.75;1.98;;;;;;;;;;5067663;28;20437;-52
2023/01/17 14:53:12;;;;;;;3.63;2.25;;;;;;;;;;5067815;28;20025;-51
2023/01/17 14:55:48;;;;;;;2.40;1.80;;;;;;;;;;5066898;28;20028;-52
2023/01/17 14:58:22;;;;;;;2.25;1.60;;;;;;;;;;5062799;28;20037;-51
2023/01/17 15:00:48;;;;;;;1.83;1.35;;;;;;;;;;5045328;28;20037;-51
2023/01/17 15:03:15;;;;;;;3.03;1.75;;;;;;;;;;5047093;28;20055;-50
2023/01/17 15:05:42;;;;;;;1.98;1.60;;;;;;;;;;5046336;28;20084;-51
2023/01/17 15:08:16;;;;;;;2.78;1.30;;;;;;;;;;5046985;28;20047;-51
2023/01/17 15:10:50;;;;;;;1.58;1.15;;;;;;;;;;5046031;28;20036;-51
2023/01/17 15:13:18;;;;;;;2.05;1.27;;;;;;;;;;5044830;28;20029;-50
2023/01/17 15:15:44;;;;;;;1.90;1.02;;;;;;;;;;5043727;28;20120;-50
2023/01/17 15:18:13;;;;;;;1.83;0.75;;;;;;;;;;5046530;28;20029;-49
2023/01/17 15:20:41;;;;;;;1.40;1.00;;;;;;;;;;5046859;28;20029;-52
2023/01/17 15:23:13;;;;;;;1.38;0.98;;;;;;;;;;5049072;28;20753;-51
2023/01/17 15:25:40;;;;;;;1.75;1.00;;;;;;;;;;5044130;28;20101;-52
2023/01/17 15:28:09;;;;;;;1.35;0.90;;;;;;;;;;5045835;28;20625;-52
2023/01/17 15:30:35;;;;;;;0.73;0.70;;;;;;;;;;5044594;28;20021;-51
2023/01/17 15:33:01;;;;;;;0.68;0.68;;;;;;;;;;5045825;28;20028;-49
2023/01/17 15:35:27;;;;;;;0.70;0.70;;;;;;;;;;5046262;28;20463;-48
2023/01/17 15:37:54;;;;;;;1.02;0.82;;;;;;;;;;5045456;28;20404;-50
2023/01/17 15:40:24;;;;;;;1.45;0.80;;;;;;;;;;5044926;28;20032;-49
2023/01/17 15:42:55;;;;;;;0.60;0.60;;;;;;;;;;5045277;28;20455;-49
2023/01/17 15:45:29;;;;;;;0.60;0.60;;;;;;;;;;5045005;28;20032;-51
2023/01/17 15:47:55;;;;;;;0.73;0.68;;;;;;;;;;5042922;28;20056;-52
2023/01/17 15:50:25;;;;;;;0.80;0.75;;;;;;;;;;5044946;28;20021;-52
2023/01/17 15:52:52;;;;;;;1.33;0.88;;;;;;;;;;5044662;28;20086;-50
2023/01/17 15:55:23;;;;;;;0.50;0.50;;;;;;;;;;5045108;28;20021;-51
2023/01/17 15:57:49;;;;;;;0.70;0.60;;;;;;;;;;5044335;28;20021;-51
2023/01/17 16:00:23;;;;;;;1.10;0.90;;;;;;;;;;5044596;28;20021;-53
2023/01/17 16:02:57;;;;;;;0.70;0.70;;;;;;;;;;5044493;28;20099;-50
2023/01/17 16:05:23;;;;;;;0.68;0.60;;;;;;;;;;5044430;28;20530;-50
2023/01/17 16:07:56;;;;;;;1.08;0.63;;;;;;;;;;5046333;28;20028;-49
2023/01/17 16:10:34;;;;;;;1.00;0.70;;;;;;;;;;5045024;28;20025;-49
2023/01/17 16:13:01;;;;;;;1.58;0.85;;;;;;;;;;5047945;28;20013;-50
2023/01/17 16:15:27;;;;;;;3.28;0.73;;;;;;;;;;5050160;28;20079;-51
2023/01/17 16:17:57;;;;;;;0.85;0.80;;;;;;;;;;5048892;28;20451;-49
2023/01/17 16:20:25;;;;;;;1.77;1.30;;;;;;;;;;5048517;28;20032;-49
2023/01/17 16:22:52;;;;;;;2.38;1.48;;;;;;;;;;5048622;28;20048;-50
2023/01/17 16:25:19;;;;;;;1.90;1.40;;;;;;;;;;5047784;28;20032;-51
2023/01/17 16:27:45;;;;;;;2.63;1.70;;;;;;;;;;5047943;28;20032;-53
2023/01/17 16:30:14;;;;;;;2.97;1.40;;;;;;;;;;5049617;28;20035;-50
2023/01/17 16:32:40;;;;;;;2.15;1.20;;;;;;;;;;5048508;28;20442;-51
2023/01/17 16:35:07;;;;;;;2.20;1.40;;;;;;;;;;5054556;28;20383;-52
2023/01/17 16:37:33;;;;;;;2.47;1.60;;;;;;;;;;5047697;28;20079;-51
2023/01/17 16:39:59;;;;;;;3.40;1.80;;;;;;;;;;5054831;28;20104;-49
2023/01/17 16:42:26;;;;;;;3.03;1.95;;;;;;;;;;5049232;28;20072;-53
2023/01/17 16:44:52;;;;;;;2.42;1.85;;;;;;;;;;5049746;28;20029;-50
2023/01/17 16:47:18;;;;;;;2.65;1.60;;;;;;;;;;5050112;28;20419;-50
2023/01/17 16:49:44;;;;;;;2.20;1.50;;;;;;;;;;5048486;28;20029;-51
2023/01/17 16:52:10;;;;;;;2.58;1.30;;;;;;;;;;5046988;28;20047;-51
2023/01/17 16:54:36;;;;;;;2.33;1.50;;;;;;;;;;5047865;28;20052;-51
2023/01/17 16:57:01;;;;;;;2.67;1.77;;;;;;;;;;5047682;28;20107;-52
2023/01/17 16:59:27;;;;;;;2.83;2.15;;;;;;;;;;5048331;28;20028;-51
2023/01/17 17:01:53;;;;;;;2.05;1.38;;;;;;;;;;5052748;28;20108;-50
2023/01/17 17:04:19;;;;;;;3.58;1.50;;;;;;;;;;5064355;28;20252;-51
2023/01/17 17:06:45;;;;;;;2.80;1.60;;;;;;;;;;5067650;28;20039;-51
2023/01/17 17:09:12;;;;;;;3.00;1.80;;;;;;;;;;5067889;28;20036;-48
2023/01/17 17:11:41;;;;;;;2.88;1.92;;;;;;;;;;5063630;28;20111;-49
2023/01/17 17:14:08;;;;;;;3.03;1.92;;;;;;;;;;5048353;28;20167;-53
2023/01/17 17:16:34;;;;;;;2.05;1.50;;;;;;;;;;5049265;28;20021;-52
2023/01/17 17:19:04;;;;;;;2.28;1.50;;;;;;;;;;5048700;28;20321;-49
2023/01/17 17:21:31;;;;;;;2.67;1.60;;;;;;;;;;5047636;28;20020;-53
2023/01/17 17:23:58;;;;;;;2.53;1.50;;;;;;;;;;5048151;28;20025;-51
2023/01/17 17:26:29;;;;;;;2.40;1.60;;;;;;;;;;5047809;28;20558;-52
2023/01/17 17:28:56;;;;;;;3.05;1.83;;;;;;;;;;5048419;28;20037;-51
2023/01/17 17:31:23;;;;;;;4.55;2.70;;;;;;;;;;5047534;28;20021;-51
2023/01/17 17:33:49;;;;;;;3.92;2.40;;;;;;;;;;5047478;28;20091;-51
2023/01/17 17:36:16;;;;;;;3.17;2.40;;;;;;;;;;5047645;28;20025;-53
2023/01/17 17:38:52;;;;;;;3.35;2.30;;;;;;;;;;5047221;28;20033;-51
2023/01/17 17:41:25;;;;;;;3.58;2.28;;;;;;;;;;5047467;28;20048;-51
2023/01/17 17:43:52;;;;;;;2.97;1.73;;;;;;;;;;5047077;28;20033;-50
2023/01/17 17:46:20;;;;;;;4.25;2.38;;;;;;;;;;5047226;28;20553;-48
2023/01/17 17:48:47;;;;;;;2.75;1.75;;;;;;;;;;5047128;28;20029;-49
2023/01/17 17:51:24;;;;;;;2.53;1.67;;;;;;;;;;5047158;28;20025;-51
2023/01/17 17:53:51;;;;;;;1.92;1.63;;;;;;;;;;5046308;28;20047;-49
2023/01/17 17:56:19;;;;;;;2.78;1.60;;;;;;;;;;5050678;28;20020;-48
2023/01/17 17:58:45;;;;;;;3.00;1.95;;;;;;;;;;5047924;28;20399;-50
2023/01/17 18:01:11;;;;;;;3.03;1.85;;;;;;;;;;5047025;28;20064;-51
2023/01/17 18:03:38;;;;;;;2.45;1.27;;;;;;;;;;5046179;28;20056;-49
2023/01/17 18:06:05;;;;;;;1.10;1.00;;;;;;;;;;5055995;28;20032;-50
2023/01/17 18:08:32;;;;;;;2.28;1.38;;;;;;;;;;5064440;28;20090;-50
2023/01/17 18:11:02;;;;;;;3.30;1.60;;;;;;;;;;5048036;28;20060;-49
2023/01/17 18:13:28;;;;;;;2.40;1.60;;;;;;;;;;5045651;28;20028;-47
2023/01/17 18:16:02;;;;;;;2.40;1.38;;;;;;;;;;5045438;28;20051;-48
2023/01/17 18:18:30;;;;;;;;;;;;;;;;;;5045313;28;20021;-51
2023/01/17 18:21:03;;;;;;;1.77;1.40;;;;;;;;;;5045754;28;20351;-48
2023/01/17 18:23:29;;;;;;;2.60;1.75;;;;;;;;;;5044912;28;20033;-47
2023/01/17 18:25:55;;;;;;;2.05;1.48;;;;;;;;;;5045327;28;20131;-50
2023/01/17 18:28:22;;;;;;;2.90;1.80;;;;;;;;;;5045523;28;20107;-49
2023/01/17 18:30:48;;;;;;;2.10;1.40;;;;;;;;;;5044825;28;20100;-47
2023/01/17 18:33:14;;;;;;;1.80;1.42;;;;;;;;;;5044917;28;20128;-48
2023/01/17 18:35:39;;;;;;;2.78;1.80;;;;;;;;;;5045507;28;20048;-50
2023/01/17 18:38:05;;;;;;;1.98;1.40;;;;;;;;;;5044875;28;20037;-47
2023/01/17 18:40:33;;;;;;;2.55;1.60;;;;;;;;;;5045174;28;20697;-49
2023/01/17 18:42:59;;;;;;;2.17;1.75;;;;;;;;;;5044908;28;20028;-49
2023/01/17 18:45:26;;;;;;;2.05;1.40;;;;;;;;;;5044123;28;20545;-48
2023/01/17 18:47:52;;;;;;;3.47;1.48;;;;;;;;;;5044371;28;20063;-49
2023/01/17 18:50:18;;;;;;;3.97;2.28;;;;;;;;;;5044549;28;20049;-50
2023/01/17 18:52:44;;;;;;;17.98;8.27;;;;;;;;;;5044347;28;20431;-47
2023/01/17 18:55:10;;;;;;;10.38;5.30;;;;;;;;;;5045684;28;20036;-51
2023/01/17 18:57:36;;;;;;;6.00;3.47;;;;;;;;;;5044646;28;20068;-48
2023/01/17 19:00:03;;;;;;;5.85;2.15;;;;;;;;;;5044381;28;20087;-50
2023/01/17 19:02:29;;;;;;;2.33;1.48;;;;;;;;;;5043362;28;20029;-48
2023/01/17 19:04:55;;;;;;;4.30;2.20;;;;;;;;;;5044316;28;20040;-48
2023/01/17 19:07:21;;;;;;;2.53;1.40;;;;;;;;;;5043986;28;20033;-51
2023/01/17 19:09:47;;;;;;;2.60;1.60;;;;;;;;;;5043739;28;20080;-47
2023/01/17 19:12:13;;;;;;;0.93;0.82;;;;;;;;;;5042567;28;20518;-48
2023/01/17 19:14:39;;;;;;;2.30;1.10;;;;;;;;;;5042988;28;20028;-49
2023/01/17 19:17:06;;;;;;;1.95;0.90;;;;;;;;;;5042975;28;20094;-49
2023/01/17 19:19:32;;;;;;;2.42;0.88;;;;;;;;;;5043970;28;21108;-49
2023/01/17 19:21:58;;;;;;;1.73;1.00;;;;;;;;;;5043846;28;20029;-47
2023/01/17 19:24:24;;;;;;;2.05;1.50;;;;;;;;;;5043774;28;20078;-49
2023/01/17 19:26:52;;;;;;;2.05;0.98;;;;;;;;;;5043398;28;20035;-50
2023/01/17 19:29:18;;;;;;;1.20;0.68;;;;;;;;;;5043456;28;20025;-48
2023/01/17 19:31:44;;;;;;;1.15;0.60;;;;;;;;;;5045595;28;20021;-51
2023/01/17 19:34:11;;;;;;;1.35;0.60;;;;;;;;;;5044423;28;20032;-51
2023/01/17 19:36:38;;;;;;;0.40;0.40;;;;;;;;;;5043885;28;20040;-51
2023/01/17 19:39:05;;;;;;;0.70;0.65;;;;;;;;;;5043930;28;20021;-50
2023/01/17 19:41:31;;;;;;;0.50;0.50;;;;;;;;;;5043347;28;20376;-47
2023/01/17 19:43:58;;;;;;;2.13;1.30;;;;;;;;;;5042880;28;20123;-51
2023/01/17 19:46:26;;;;;;;1.17;0.80;;;;;;;;;;5047714;28;20040;-46
2023/01/17 19:48:52;;;;;;;1.52;1.02;;;;;;;;;;5045209;28;20025;-49
2023/01/17 19:51:18;;;;;;;1.70;1.42;;;;;;;;;;5044732;28;20043;-50
2023/01/17 19:53:44;;;;;;;1.35;1.25;;;;;;;;;;5044989;28;20524;-49
2023/01/17 19:56:13;;;;;;;2.03;1.70;;;;;;;;;;5046238;28;20107;-51
2023/01/17 19:58:39;;;;;;;2.85;1.70;;;;;;;;;;5046375;28;20124;-52
2023/01/17 20:01:09;;;;;;;2.08;1.67;;;;;;;;;;5044281;28;20399;-50
2023/01/17 20:03:36;;;;;;;2.40;1.83;;;;;;;;;;5051249;28;20025;-50
2023/01/17 20:06:02;;;;;;;3.58;2.15;;;;;;;;;;5046857;28;20040;-48
2023/01/17 20:08:28;;;;;;;2.63;1.73;;;;;;;;;;5050127;28;20061;-50
2023/01/17 20:10:59;;;;;;;2.75;1.63;;;;;;;;;;5046935;28;20025;-50
2023/01/17 20:13:26;;;;;;;2.28;1.27;;;;;;;;;;5048246;28;20586;-48
2023/01/17 20:15:52;;;;;;;2.25;1.52;;;;;;;;;;5048758;28;20425;-47
2023/01/17 20:18:19;;;;;;;3.33;1.65;;;;;;;;;;5044098;28;20032;-49
2023/01/17 20:20:45;;;;;;;1.92;1.40;;;;;;;;;;5041703;28;20420;-46
2023/01/17 20:23:11;;;;;;;2.20;1.40;;;;;;;;;;5043180;28;20037;-48
2023/01/17 20:25:38;;;;;;;2.50;1.20;;;;;;;;;;5042386;28;20036;-52
2023/01/17 20:28:04;;;;;;;2.78;1.20;;;;;;;;;;5042693;28;20017;-48
2023/01/17 20:30:31;;;;;;;3.90;2.10;;;;;;;;;;5042045;28;20080;-51
2023/01/17 20:32:58;;;;;;;4.28;2.20;;;;;;;;;;5043438;28;20455;-49
2023/01/17 20:35:24;;;;;;;3.08;2.10;;;;;;;;;;5043517;28;20096;-51
2023/01/17 20:37:53;;;;;;;3.17;1.90;;;;;;;;;;5041928;28;20021;-51
2023/01/17 20:40:19;;;;;;;4.45;2.40;;;;;;;;;;5043174;28;20495;-49
2023/01/17 20:42:46;;;;;;;3.97;2.13;;;;;;;;;;5042743;28;20032;-50
2023/01/17 20:45:12;;;;;;;5.15;2.17;;;;;;;;;;5047796;28;20075;-52
2023/01/17 20:47:38;;;;;;;4.07;1.77;;;;;;;;;;5050437;28;20024;-50
2023/01/17 20:50:04;;;;;;;3.35;1.55;;;;;;;;;;5050334;28;20056;-48
2023/01/17 20:52:30;;;;;;;4.15;1.90;;;;;;;;;;5041840;28;20021;-47
2023/01/17 20:54:56;;;;;;;3.70;1.90;;;;;;;;;;5043002;28;20036;-48
2023/01/17 20:57:22;;;;;;;4.00;2.30;;;;;;;;;;5043935;28;20056;-49
2023/01/17 20:59:48;;;;;;;4.07;2.30;;;;;;;;;;5046357;28;20071;-51
2023/01/17 21:02:14;;;;;;;4.13;2.22;;;;;;;;;;5046602;28;20025;-49